Time;durP1;ratioP1;P1;durP2;ratioP2;P2;SDS_P1;SDS_P2;PMS_P1;PMS_P2;Temp;Humidity;BMP_temperature;BMP_pressure;BME280_temperature;BME280_humidity;BME280_pressure;Samples;Min_cycle;Max_cycle;Signal;HPM_P1;HPM_P2
2022/10/10 00:01:09;;;;;;;5.03;1.73;;;9.10;99.90;;;;;;5070619;28;20051;-63
2022/10/10 00:03:35;;;;;;;4.75;1.67;;;8.90;99.90;;;;;;5069983;28;20035;-63
2022/10/10 00:06:00;;;;;;;6.10;2.08;;;8.90;99.90;;;;;;5092800;28;20383;-64
2022/10/10 00:08:26;;;;;;;8.13;2.20;;;9.10;99.90;;;;;;5071394;28;20523;-63
2022/10/10 00:10:52;;;;;;;6.95;1.90;;;9.10;99.90;;;;;;5070656;28;20512;-63
2022/10/10 00:13:18;;;;;;;7.03;2.08;;;8.90;99.90;;;;;;5040871;28;20040;-63
2022/10/10 00:15:43;;;;;;;4.63;1.60;;;8.90;99.90;;;;;;5069766;28;20128;-65
2022/10/10 00:18:09;;;;;;;5.13;1.80;;;9.00;99.90;;;;;;5023694;28;20036;-64
2022/10/10 00:20:35;;;;;;;7.15;2.30;;;9.00;99.90;;;;;;5077900;28;20032;-64
2022/10/10 00:23:01;;;;;;;9.23;2.20;;;8.90;99.90;;;;;;5067966;28;20724;-64
2022/10/10 00:25:27;;;;;;;4.95;1.98;;;8.80;99.90;;;;;;5088367;28;20051;-63
2022/10/10 00:27:52;;;;;;;6.40;2.33;;;8.90;99.90;;;;;;5070407;28;20112;-63
2022/10/10 00:30:18;;;;;;;7.78;2.20;;;8.70;99.90;;;;;;5069510;28;20044;-62
2022/10/10 00:32:44;;;;;;;5.63;1.55;;;8.80;99.90;;;;;;5042694;28;20043;-63
2022/10/10 00:35:10;;;;;;;6.53;2.30;;;8.70;99.90;;;;;;5092528;28;20063;-62
2022/10/10 00:37:35;;;;;;;6.82;2.35;;;8.70;99.90;;;;;;5061950;28;20397;-64
2022/10/10 00:40:02;;;;;;;5.97;1.92;;;8.70;99.90;;;;;;5070153;28;20475;-64
2022/10/10 00:42:28;;;;;;;5.10;2.10;;;8.70;99.90;;;;;;5087671;28;20059;-64
2022/10/10 00:45:30;;;;;;;5.50;1.90;;;8.60;99.90;;;;;;5049213;28;20754;-64
2022/10/10 00:48:16;;;;;;;6.43;1.70;;;8.70;99.90;;;;;;5069940;28;20124;-62
2022/10/10 00:50:47;;;;;;;7.75;2.30;;;8.70;99.90;;;;;;5069935;28;20048;-62
2022/10/10 00:53:15;;;;;;;5.63;2.10;;;8.70;99.90;;;;;;5068536;28;20052;-62
2022/10/10 00:55:42;;;;;;;6.50;2.17;;;8.50;99.90;;;;;;5069353;28;20044;-62
2022/10/10 00:58:09;;;;;;;5.93;2.28;;;8.60;99.90;;;;;;5069281;28;20039;-63
2022/10/10 01:00:34;;;;;;;3.75;1.90;;;8.60;99.90;;;;;;5069723;28;20044;-61
2022/10/10 01:03:00;;;;;;;5.55;2.05;;;8.70;99.90;;;;;;5069594;28;20056;-63
2022/10/10 01:05:26;;;;;;;4.70;1.95;;;8.50;99.90;;;;;;5068849;28;20044;-63
2022/10/10 01:07:53;;;;;;;6.88;2.05;;;8.50;99.90;;;;;;5051310;28;20035;-62
2022/10/10 01:10:21;;;;;;;3.85;2.13;;;8.60;99.90;;;;;;5068410;28;20036;-62
2022/10/10 01:13:10;;;;;;;6.53;2.42;;;8.60;99.90;;;;;;5024372;28;20478;-62
2022/10/10 01:15:54;;;;;;;4.95;2.03;;;8.50;99.90;;;;;;5076000;28;20130;-63
2022/10/10 01:18:25;;;;;;;5.65;2.45;;;8.60;99.90;;;;;;5068829;28;20047;-63
2022/10/10 01:21:03;;;;;;;5.88;2.15;;;8.40;99.90;;;;;;5051285;28;20129;-63
2022/10/10 01:24:00;;;;;;;4.78;2.08;;;8.60;99.90;;;;;;5069171;28;20048;-63
2022/10/10 01:26:35;;;;;;;7.90;2.40;;;8.40;99.90;;;;;;5069060;28;20513;-64
2022/10/10 01:29:21;;;;;;;6.97;2.05;;;8.60;99.90;;;;;;5085526;28;20037;-64
2022/10/10 01:31:52;;;;;;;5.35;2.00;;;8.60;99.90;;;;;;5068804;28;20052;-62
2022/10/10 01:34:43;;;;;;;6.10;1.80;;;8.50;99.90;;;;;;5067924;28;20044;-61
2022/10/10 01:37:16;;;;;;;4.70;1.88;;;8.50;99.90;;;;;;5058693;28;20042;-62
2022/10/10 01:39:56;;;;;;;9.00;2.10;;;8.40;99.90;;;;;;5069067;28;20037;-63
2022/10/10 01:42:28;;;;;;;7.72;2.45;;;8.60;99.90;;;;;;5067887;28;20092;-63
2022/10/10 01:44:55;;;;;;;4.57;1.85;;;8.40;99.90;;;;;;5069349;28;20402;-64
2022/10/10 01:47:21;;;;;;;8.02;2.67;;;8.30;99.90;;;;;;5067492;28;20055;-63
2022/10/10 01:49:50;;;;;;;4.68;2.13;;;8.40;99.90;;;;;;5071170;28;20032;-64
2022/10/10 01:52:40;;;;;;;4.20;2.00;;;8.30;99.90;;;;;;5068383;28;20052;-64
2022/10/10 01:55:33;;;;;;;6.60;2.67;;;8.30;99.90;;;;;;5037940;28;20160;-63
2022/10/10 01:58:31;;;;;;;4.82;2.30;;;8.20;99.90;;;;;;5068312;28;20401;-64
2022/10/10 02:01:41;;;;;;;5.90;2.22;;;8.40;99.90;;;;;;5052116;28;20418;-63
2022/10/10 02:04:46;;;;;;;6.88;2.42;;;8.10;99.90;;;;;;5024417;28;20075;-66
2022/10/10 02:07:25;;;;;;;5.25;1.88;;;8.30;99.90;;;;;;5056023;28;20040;-64
2022/10/10 02:09:52;;;;;;;4.55;1.85;;;8.40;99.90;;;;;;5046226;28;20075;-63
2022/10/10 02:12:18;;;;;;;6.13;2.33;;;8.50;99.90;;;;;;5086519;28;20482;-65
2022/10/10 02:14:49;;;;;;;3.78;1.60;;;8.50;99.90;;;;;;5056561;28;20040;-63
2022/10/10 02:17:16;;;;;;;7.97;2.38;;;8.50;99.90;;;;;;5050909;28;20534;-63
2022/10/10 02:20:00;;;;;;;8.18;2.50;;;8.30;99.90;;;;;;5068576;28;20047;-63
2022/10/10 02:22:27;;;;;;;5.63;1.90;;;8.50;99.90;;;;;;5068223;28;20046;-64
2022/10/10 02:24:53;;;;;;;4.10;1.80;;;8.50;99.90;;;;;;5068507;28;20146;-65
2022/10/10 02:27:36;;;;;;;4.10;1.98;;;8.50;99.90;;;;;;5086729;28;20032;-63
2022/10/10 02:30:03;;;;;;;4.95;2.33;;;8.30;99.90;;;;;;5051189;28;20137;-65
2022/10/10 02:32:43;;;;;;;4.32;2.30;;;8.20;99.90;;;;;;5086417;28;20480;-63
2022/10/10 02:35:15;;;;;;;5.55;2.20;;;8.50;99.90;;;;;;5067116;28;20044;-63
2022/10/10 02:37:42;;;;;;;8.18;2.35;;;8.40;99.90;;;;;;5067938;28;20072;-63
2022/10/10 02:40:11;;;;;;;7.72;2.97;;;8.50;99.90;;;;;;5068505;28;20097;-62
2022/10/10 02:42:38;;;;;;;5.57;2.55;;;8.40;99.90;;;;;;5079311;28;20069;-63
2022/10/10 02:45:05;;;;;;;4.97;2.28;;;8.40;99.90;;;;;;5059419;28;20047;-64
2022/10/10 02:47:31;;;;;;;7.32;2.20;;;8.20;99.90;;;;;;5087387;28;20564;-64
2022/10/10 02:49:56;;;;;;;5.13;1.85;;;8.40;99.90;;;;;;5086463;28;20154;-64
2022/10/10 02:52:23;;;;;;;8.52;2.10;;;8.40;99.90;;;;;;5087655;28;20048;-63
2022/10/10 02:54:48;;;;;;;5.53;1.90;;;8.40;99.90;;;;;;5077395;28;20040;-63
2022/10/10 02:57:14;;;;;;;6.13;2.38;;;8.50;99.90;;;;;;5072210;28;20043;-63
2022/10/10 02:59:40;;;;;;;4.40;2.22;;;8.30;99.90;;;;;;5059607;28;20048;-64
2022/10/10 03:02:06;;;;;;;5.80;2.28;;;8.50;99.90;;;;;;5059543;28;20043;-62
2022/10/10 03:04:33;;;;;;;5.82;2.33;;;8.50;99.90;;;;;;5030184;28;20044;-63
2022/10/10 03:06:59;;;;;;;6.05;2.30;;;8.50;99.90;;;;;;5077135;28;20044;-63
2022/10/10 03:09:25;;;;;;;7.35;2.50;;;8.40;99.90;;;;;;5042960;28;20056;-63
2022/10/10 03:11:50;;;;;;;5.07;2.15;;;8.30;99.90;;;;;;5014680;28;20040;-63
2022/10/10 03:14:16;;;;;;;5.97;2.55;;;8.30;99.90;;;;;;5011092;28;20521;-62
2022/10/10 03:16:41;;;;;;;5.22;2.05;;;8.10;99.90;;;;;;5060600;28;20032;-64
2022/10/10 03:19:07;;;;;;;5.43;2.70;;;8.30;99.90;;;;;;5063191;28;20040;-63
2022/10/10 03:21:34;;;;;;;3.42;2.40;;;8.10;99.90;;;;;;5063163;28;20127;-63
2022/10/10 03:24:00;;;;;;;5.00;2.83;;;8.20;99.90;;;;;;5088709;28;20043;-62
2022/10/10 03:26:25;;;;;;;5.90;2.50;;;8.00;99.90;;;;;;5090057;28;20460;-63
2022/10/10 03:28:51;;;;;;;4.63;2.90;;;8.10;99.90;;;;;;5034661;28;20047;-63
2022/10/10 03:31:17;;;;;;;6.68;2.92;;;8.10;99.90;;;;;;5034810;28;20477;-63
2022/10/10 03:33:42;;;;;;;5.97;2.90;;;8.00;99.90;;;;;;5061626;28;20036;-63
2022/10/10 03:36:08;;;;;;;5.30;2.88;;;7.90;99.90;;;;;;5019966;28;20085;-63
2022/10/10 03:38:34;;;;;;;6.00;2.78;;;7.70;99.90;;;;;;5061833;28;20043;-63
2022/10/10 03:41:00;;;;;;;6.00;2.95;;;7.80;99.90;;;;;;5033776;28;20040;-63
2022/10/10 03:43:25;;;;;;;5.90;3.47;;;7.80;99.90;;;;;;5050645;28;20048;-63
2022/10/10 03:45:51;;;;;;;5.47;3.20;;;7.70;99.90;;;;;;5061824;28;20048;-63
2022/10/10 03:48:17;;;;;;;8.98;3.25;;;7.70;99.90;;;;;;5070889;28;20036;-63
2022/10/10 03:50:43;;;;;;;7.57;3.42;;;7.60;99.90;;;;;;5080465;28;20573;-64
2022/10/10 03:53:11;;;;;;;5.57;2.88;;;7.50;99.90;;;;;;5063228;28;20057;-63
2022/10/10 03:55:39;;;;;;;7.50;3.40;;;7.60;99.90;;;;;;5045720;28;20112;-63
2022/10/10 03:58:05;;;;;;;7.05;3.80;;;7.80;99.90;;;;;;5062698;28;20075;-64
2022/10/10 04:00:30;;;;;;;3.90;3.10;;;7.70;99.90;;;;;;5062398;28;20087;-62
2022/10/10 04:02:56;;;;;;;7.93;3.47;;;7.60;99.90;;;;;;5080735;28;20043;-62
2022/10/10 04:05:22;;;;;;;7.18;3.90;;;7.60;99.90;;;;;;5044685;28;20165;-63
2022/10/10 04:07:47;;;;;;;8.43;3.85;;;7.50;99.90;;;;;;5061960;28;20131;-64
2022/10/10 04:10:13;;;;;;;6.15;4.07;;;7.70;99.90;;;;;;5062561;28;20457;-63
2022/10/10 04:12:39;;;;;;;8.45;3.92;;;7.70;99.90;;;;;;5044849;28;20602;-64
2022/10/10 04:15:05;;;;;;;6.75;3.63;;;7.50;99.90;;;;;;5080427;28;20456;-64
2022/10/10 04:17:31;;;;;;;6.72;3.67;;;7.40;99.90;;;;;;5033036;28;20051;-63
2022/10/10 04:19:56;;;;;;;5.78;3.63;;;7.30;99.90;;;;;;5061159;28;20447;-64
2022/10/10 04:22:22;;;;;;;6.00;4.03;;;7.40;99.90;;;;;;5046081;28;20036;-63
2022/10/10 04:24:48;;;;;;;5.95;4.00;;;7.50;99.90;;;;;;5061395;28;20457;-63
2022/10/10 04:27:13;;;;;;;8.32;4.13;;;7.50;99.90;;;;;;5062168;28;20394;-62
2022/10/10 04:29:39;;;;;;;7.43;4.55;;;7.20;99.90;;;;;;5060502;28;20416;-63
2022/10/10 04:32:06;;;;;;;6.10;4.60;;;7.20;99.90;;;;;;5044152;28;20036;-65
2022/10/10 04:34:32;;;;;;;6.65;4.75;;;7.50;99.90;;;;;;5062481;28;20109;-63
2022/10/10 04:36:57;;;;;;;6.57;4.57;;;7.40;99.90;;;;;;5032938;28;20067;-65
2022/10/10 04:39:23;;;;;;;7.70;4.60;;;7.50;99.90;;;;;;5060885;28;20059;-63
2022/10/10 04:41:49;;;;;;;5.55;3.88;;;7.20;99.90;;;;;;5052634;28;20048;-63
2022/10/10 04:44:16;;;;;;;5.97;4.28;;;7.30;99.90;;;;;;5029115;28;20055;-64
2022/10/10 04:46:41;;;;;;;8.98;4.32;;;7.40;99.90;;;;;;5044867;28;20743;-64
2022/10/10 04:49:07;;;;;;;8.98;4.68;;;7.40;99.90;;;;;;5044077;28;20051;-62
2022/10/10 04:51:32;;;;;;;7.80;4.47;;;7.00;99.90;;;;;;5043828;28;20047;-63
2022/10/10 04:53:58;;;;;;;9.43;4.95;;;7.40;99.90;;;;;;5037819;28;20048;-63
2022/10/10 04:56:25;;;;;;;7.72;4.35;;;7.20;99.90;;;;;;5090498;28;20247;-63
2022/10/10 04:58:51;;;;;;;6.60;5.10;;;7.20;99.90;;;;;;5059475;28;20466;-63
2022/10/10 05:01:16;;;;;;;6.55;5.00;;;6.90;99.90;;;;;;5064704;28;20043;-64
2022/10/10 05:03:42;;;;;;;8.05;4.43;;;6.90;99.90;;;;;;5043791;28;20112;-63
2022/10/10 05:06:08;;;;;;;7.57;5.13;;;7.30;99.90;;;;;;5061438;28;20413;-64
2022/10/10 05:08:33;;;;;;;7.85;5.07;;;7.20;99.90;;;;;;5061770;28;20039;-63
2022/10/10 05:10:59;;;;;;;8.07;4.93;;;7.10;99.90;;;;;;5060481;28;20489;-63
2022/10/10 05:13:25;;;;;;;5.47;4.90;;;7.10;99.90;;;;;;5046165;28;20055;-62
2022/10/10 05:15:52;;;;;;;9.20;5.05;;;7.20;99.90;;;;;;5013065;28;20039;-64
2022/10/10 05:18:19;;;;;;;4.82;4.30;;;6.80;99.90;;;;;;5062204;28;20038;-62
2022/10/10 05:20:46;;;;;;;9.50;5.07;;;7.00;99.90;;;;;;5079726;28;20044;-62
2022/10/10 05:23:12;;;;;;;7.03;4.90;;;7.00;99.90;;;;;;5079338;28;20160;-65
2022/10/10 05:25:38;;;;;;;5.93;5.20;;;7.30;99.90;;;;;;5062546;28;20035;-63
2022/10/10 05:28:04;;;;;;;7.03;5.20;;;7.10;99.90;;;;;;5029512;28;20059;-64
2022/10/10 05:30:30;;;;;;;10.13;5.90;;;7.10;99.90;;;;;;5060548;28;20102;-62
2022/10/10 05:32:55;;;;;;;8.30;5.50;;;7.10;99.90;;;;;;5061388;28;20481;-64
2022/10/10 05:35:21;;;;;;;9.52;6.20;;;6.70;99.90;;;;;;5026307;28;20040;-62
2022/10/10 05:37:47;;;;;;;8.82;5.35;;;7.00;99.90;;;;;;5060567;28;20147;-63
2022/10/10 05:40:12;;;;;;;8.65;6.03;;;6.90;99.90;;;;;;5062518;28;20134;-63
2022/10/10 05:42:38;;;;;;;9.40;5.63;;;6.70;99.90;;;;;;5081808;28;20048;-64
2022/10/10 05:45:04;;;;;;;6.40;4.93;;;6.80;99.90;;;;;;5095891;28;20409;-63
2022/10/10 05:47:30;;;;;;;7.65;5.53;;;6.90;99.90;;;;;;5069905;28;20051;-63
2022/10/10 05:49:55;;;;;;;10.10;5.70;;;7.10;99.90;;;;;;5066594;28;20552;-63
2022/10/10 05:52:21;;;;;;;7.93;5.63;;;6.90;99.90;;;;;;5080238;28;20072;-63
2022/10/10 05:54:46;;;;;;;7.47;5.32;;;6.90;99.90;;;;;;5077376;28;20043;-65
2022/10/10 05:57:12;;;;;;;8.50;5.20;;;7.00;99.90;;;;;;5010904;28;20040;-63
2022/10/10 05:59:38;;;;;;;8.25;5.70;;;7.10;99.90;;;;;;5041850;28;20039;-62
2022/10/10 06:02:03;;;;;;;9.48;5.57;;;6.70;99.90;;;;;;5060582;28;20478;-63
2022/10/10 06:04:29;;;;;;;7.50;5.72;;;7.10;99.90;;;;;;5061710;28;20101;-64
2022/10/10 06:06:55;;;;;;;7.65;5.60;;;6.70;99.90;;;;;;5060271;28;20397;-64
2022/10/10 06:09:20;;;;;;;7.82;5.32;;;6.90;99.90;;;;;;5060872;28;20661;-61
2022/10/10 06:11:46;;;;;;;8.68;6.13;;;6.70;99.90;;;;;;5041016;28;20451;-62
2022/10/10 06:14:11;;;;;;;9.50;5.88;;;6.80;99.90;;;;;;5059435;28;20551;-63
2022/10/10 06:16:38;;;;;;;8.82;5.88;;;7.10;99.90;;;;;;5059833;28;20040;-63
2022/10/10 06:19:04;;;;;;;7.82;6.20;;;7.20;99.90;;;;;;5043144;28;20059;-64
2022/10/10 06:21:30;;;;;;;8.30;6.32;;;6.70;99.90;;;;;;5037981;28;20040;-65
2022/10/10 06:23:56;;;;;;;8.68;6.25;;;6.70;99.90;;;;;;5060170;28;20055;-63
2022/10/10 06:26:21;;;;;;;9.65;6.00;;;7.20;99.90;;;;;;5078067;28;20036;-64
2022/10/10 06:28:49;;;;;;;10.43;5.43;;;6.90;99.90;;;;;;5015404;28;20405;-64
2022/10/10 06:31:15;;;;;;;9.68;6.60;;;7.10;99.90;;;;;;5077106;28;20497;-65
2022/10/10 06:33:45;;;;;;;9.00;6.57;;;7.00;99.90;;;;;;5090837;28;20040;-63
2022/10/10 06:36:12;;;;;;;8.90;6.53;;;7.40;99.90;;;;;;5057945;28;20040;-64
2022/10/10 06:38:40;;;;;;;10.73;6.40;;;7.30;99.90;;;;;;5040904;28;20036;-63
2022/10/10 06:41:07;;;;;;;14.77;6.35;;;7.30;99.90;;;;;;5058217;28;20086;-63
2022/10/10 06:43:33;;;;;;;7.88;6.35;;;7.50;99.90;;;;;;5056007;28;20048;-63
2022/10/10 06:46:00;;;;;;;9.13;6.55;;;7.60;99.90;;;;;;5067979;28;20089;-63
2022/10/10 06:48:28;;;;;;;10.93;6.68;;;7.40;99.90;;;;;;5079739;28;20094;-64
2022/10/10 06:51:04;;;;;;;9.98;6.22;;;7.40;99.90;;;;;;5029129;28;20106;-64
2022/10/10 06:53:30;;;;;;;11.77;6.95;;;7.50;99.90;;;;;;5073963;28;20128;-63
2022/10/10 06:55:57;;;;;;;11.80;6.50;;;7.60;99.90;;;;;;5064756;28;20038;-64
2022/10/10 06:58:24;;;;;;;9.38;6.50;;;7.70;99.90;;;;;;5063205;28;20054;-64
2022/10/10 07:00:56;;;;;;;7.95;5.63;;;7.90;99.90;;;;;;5034524;28;20485;-64
2022/10/10 07:03:22;;;;;;;9.48;6.40;;;7.90;99.90;;;;;;5061545;28;20395;-63
2022/10/10 07:05:49;;;;;;;13.10;6.88;;;8.20;99.90;;;;;;5080522;28;20044;-62
2022/10/10 07:08:15;;;;;;;9.27;7.10;;;8.00;99.90;;;;;;5062922;28;20063;-63
2022/10/10 07:10:42;;;;;;;10.77;6.50;;;8.20;99.90;;;;;;5061765;28;20481;-64
2022/10/10 07:13:07;;;;;;;8.95;6.43;;;8.30;99.90;;;;;;5078624;28;20068;-62
2022/10/10 07:15:33;;;;;;;9.68;6.18;;;8.10;99.90;;;;;;5060321;28;20123;-62
2022/10/10 07:17:59;;;;;;;10.27;6.43;;;8.30;99.90;;;;;;5063254;28;20036;-63
2022/10/10 07:20:26;;;;;;;8.93;6.30;;;8.50;99.90;;;;;;5062107;28;20283;-65
2022/10/10 07:22:52;;;;;;;8.95;5.70;;;8.60;99.90;;;;;;5061755;28;20077;-64
2022/10/10 07:25:17;;;;;;;10.63;6.20;;;8.70;99.90;;;;;;5061910;28;20119;-63
2022/10/10 07:27:43;;;;;;;12.48;6.30;;;8.70;99.90;;;;;;5060661;28;20046;-63
2022/10/10 07:30:09;;;;;;;11.35;7.00;;;8.60;99.90;;;;;;5077827;28;20093;-63
2022/10/10 07:32:35;;;;;;;9.35;6.13;;;8.60;99.90;;;;;;5062344;28;20084;-64
2022/10/10 07:35:01;;;;;;;9.75;5.90;;;8.80;99.90;;;;;;5059247;28;20056;-64
2022/10/10 07:37:26;;;;;;;9.60;6.20;;;9.00;99.90;;;;;;5059460;28;20044;-64
2022/10/10 07:39:52;;;;;;;11.60;6.20;;;9.00;99.90;;;;;;5018862;28;20683;-64
2022/10/10 07:42:18;;;;;;;9.95;6.55;;;9.20;99.90;;;;;;5058368;28;20299;-64
2022/10/10 07:44:44;;;;;;;9.40;6.18;;;9.30;99.90;;;;;;5081309;28;20046;-64
2022/10/10 07:47:10;;;;;;;12.45;6.43;;;9.30;99.90;;;;;;5083314;28;20520;-63
2022/10/10 07:49:36;;;;;;;10.73;7.65;;;9.40;99.90;;;;;;5036032;28;20047;-63
2022/10/10 07:52:01;;;;;;;9.00;6.43;;;9.50;99.90;;;;;;5060781;28;20036;-66
2022/10/10 07:54:28;;;;;;;10.25;6.28;;;9.60;99.90;;;;;;5077889;28;20048;-63
2022/10/10 07:56:53;;;;;;;9.88;5.72;;;9.70;99.90;;;;;;5044330;28;20131;-63
2022/10/10 07:59:19;;;;;;;7.82;5.45;;;10.00;99.90;;;;;;5061295;28;20149;-63
2022/10/10 08:01:45;;;;;;;8.15;6.20;;;10.70;99.90;;;;;;5060310;28;20044;-63
2022/10/10 08:04:10;;;;;;;9.82;5.80;;;11.10;99.90;;;;;;5050996;28;20040;-63
2022/10/10 08:06:36;;;;;;;8.05;5.68;;;11.20;99.90;;;;;;5042624;28;20047;-63
2022/10/10 08:09:02;;;;;;;8.68;5.88;;;11.20;99.90;;;;;;5061281;28;20262;-64
2022/10/10 08:11:27;;;;;;;9.40;5.45;;;11.00;99.90;;;;;;5059400;28;20036;-62
2022/10/10 08:13:53;;;;;;;9.88;5.60;;;10.80;99.90;;;;;;5060676;28;20048;-64
2022/10/10 08:16:19;;;;;;;9.15;5.25;;;10.80;99.90;;;;;;5043353;28;20473;-63
2022/10/10 08:18:45;;;;;;;8.70;5.28;;;11.50;99.90;;;;;;5042836;28;20048;-64
2022/10/10 08:21:12;;;;;;;6.10;5.03;;;12.30;99.90;;;;;;5059812;28;20046;-64
2022/10/10 08:23:38;;;;;;;9.70;4.53;;;12.80;99.90;;;;;;5059566;28;20047;-64
2022/10/10 08:26:07;;;;;;;6.75;4.38;;;13.10;99.90;;;;;;5052437;28;20077;-64
2022/10/10 08:28:33;;;;;;;9.27;4.85;;;13.00;99.90;;;;;;5059011;28;20044;-62
2022/10/10 08:31:03;;;;;;;7.05;4.88;;;13.10;99.90;;;;;;5043605;28;20520;-63
2022/10/10 08:33:28;;;;;;;6.95;4.63;;;13.10;99.90;;;;;;5061447;28;20469;-64
2022/10/10 08:35:54;;;;;;;5.82;4.30;;;13.10;99.90;;;;;;5076553;28;20056;-64
2022/10/10 08:38:20;;;;;;;6.93;4.45;;;13.20;99.90;;;;;;5042572;28;20044;-64
2022/10/10 08:40:52;;;;;;;8.73;4.60;;;13.30;99.90;;;;;;5057916;28;20044;-63
2022/10/10 08:43:31;;;;;;;7.15;4.65;;;13.40;99.90;;;;;;5058106;28;20095;-63
2022/10/10 08:46:02;;;;;;;7.80;4.18;;;13.40;99.90;;;;;;5058654;28;20094;-64
2022/10/10 08:48:30;;;;;;;5.97;4.43;;;13.70;99.90;;;;;;5057563;28;20036;-64
2022/10/10 08:51:04;;;;;;;7.65;4.38;;;14.00;99.90;;;;;;5056630;28;20043;-65
2022/10/10 08:53:56;;;;;;;6.40;4.78;;;14.20;99.90;;;;;;5077330;28;20040;-64
2022/10/10 08:56:33;;;;;;;7.20;4.50;;;14.20;99.90;;;;;;5073119;28;20039;-64
2022/10/10 08:59:20;;;;;;;6.68;4.78;;;13.70;99.90;;;;;;5058308;28;20048;-64
2022/10/10 09:01:49;;;;;;;9.52;4.97;;;13.30;99.90;;;;;;5057901;28;20054;-64
2022/10/10 09:04:17;;;;;;;10.20;4.70;;;13.30;99.90;;;;;;5043852;28;20135;-63
2022/10/10 09:07:04;;;;;;;8.15;4.88;;;13.60;99.90;;;;;;5058707;28;20102;-64
2022/10/10 09:09:44;;;;;;;9.02;4.80;;;14.20;99.90;;;;;;5077483;28;20101;-66
2022/10/10 09:12:47;;;;;;;13.02;5.35;;;14.30;99.90;;;;;;5056830;28;20063;-64
2022/10/10 09:15:13;;;;;;;9.00;4.90;;;15.20;99.90;;;;;;5049577;28;20069;-64
2022/10/10 09:18:13;;;;;;;7.32;4.68;;;15.40;99.90;;;;;;5057364;28;20795;-65
2022/10/10 09:20:39;;;;;;;11.35;5.32;;;15.90;99.90;;;;;;5055546;28;20044;-66
2022/10/10 09:23:15;;;;;;;9.00;5.10;;;16.30;99.90;;;;;;5057475;28;20265;-64
2022/10/10 09:25:47;;;;;;;7.65;4.75;;;16.40;99.90;;;;;;5058636;28;20379;-64
2022/10/10 09:28:39;;;;;;;9.45;4.85;;;16.30;99.90;;;;;;5034527;28;20051;-64
2022/10/10 09:31:15;;;;;;;9.15;5.10;;;16.30;99.90;;;;;;5054381;28;20131;-65
2022/10/10 09:33:42;;;;;;;9.15;4.50;;;15.90;99.90;;;;;;5078793;28;20040;-64
2022/10/10 09:36:14;;;;;;;10.65;4.50;;;16.00;99.90;;;;;;5058732;28;20067;-63
2022/10/10 09:38:49;;;;;;;6.57;4.35;;;16.30;99.90;;;;;;5060236;28;20379;-63
2022/10/10 09:41:24;;;;;;;8.68;4.70;;;16.70;99.90;;;;;;5058689;28;20158;-64
2022/10/10 09:43:56;;;;;;;8.40;4.88;;;16.80;99.90;;;;;;5057266;28;20070;-63
2022/10/10 09:46:21;;;;;;;8.75;4.78;;;16.80;99.90;;;;;;5043074;28;20047;-64
2022/10/10 09:48:47;;;;;;;9.57;4.47;;;16.70;99.90;;;;;;5055788;28;20592;-64
2022/10/10 09:51:17;;;;;;;7.22;5.10;;;16.60;99.90;;;;;;5058172;28;20052;-64
2022/10/10 09:53:46;;;;;;;8.18;5.18;;;16.80;99.90;;;;;;5059606;28;20433;-62
2022/10/10 09:56:28;;;;;;;7.03;4.70;;;16.80;99.90;;;;;;5032119;28;20036;-63
2022/10/10 09:58:54;;;;;;;8.27;4.95;;;16.50;99.90;;;;;;5059557;28;20123;-63
2022/10/10 10:01:30;;;;;;;8.65;4.93;;;16.10;99.90;;;;;;5057645;28;20158;-64
2022/10/10 10:04:05;;;;;;;8.02;4.97;;;15.90;99.90;;;;;;5056080;28;20311;-64
2022/10/10 10:06:31;;;;;;;7.95;5.03;;;15.70;99.90;;;;;;5057726;28;20040;-63
2022/10/10 10:09:04;;;;;;;12.02;6.00;;;15.60;99.90;;;;;;5029717;28;20075;-63
2022/10/10 10:11:34;;;;;;;7.88;4.80;;;15.60;99.90;;;;;;5077253;28;20032;-64
2022/10/10 10:14:03;;;;;;;8.82;5.25;;;15.70;99.90;;;;;;5075261;28;20047;-63
2022/10/10 10:16:37;;;;;;;8.88;4.72;;;16.00;99.90;;;;;;5058081;28;20032;-63
2022/10/10 10:19:05;;;;;;;9.85;5.55;;;16.20;99.90;;;;;;5051637;28;20111;-64
2022/10/10 10:21:46;;;;;;;9.60;4.90;;;16.50;99.90;;;;;;5051946;28;20044;-68
2022/10/10 10:24:23;;;;;;;11.88;4.88;;;17.00;99.90;;;;;;5030171;28;20478;-65
2022/10/10 10:26:50;;;;;;;8.02;5.00;;;17.40;99.90;;;;;;5057485;28;20059;-65
2022/10/10 10:29:26;;;;;;;5.90;4.65;;;17.80;99.90;;;;;;5063018;28;20268;-65
2022/10/10 10:32:17;;;;;;;9.68;5.10;;;17.90;99.90;;;;;;5046701;28;20079;-65
2022/10/10 10:34:53;;;;;;;7.25;4.32;;;17.80;99.90;;;;;;5063319;28;20036;-63
2022/10/10 10:37:44;;;;;;;8.98;5.00;;;17.60;99.90;;;;;;5064424;28;20128;-64
2022/10/10 10:40:38;;;;;;;8.70;4.60;;;17.40;99.90;;;;;;5009403;28;20052;-64
2022/10/10 10:43:37;;;;;;;12.93;5.05;;;17.50;99.90;;;;;;5044835;28;20048;-63
2022/10/10 10:46:20;;;;;;;8.18;4.68;;;17.70;99.90;;;;;;5050373;28;20056;-66
2022/10/10 10:49:00;;;;;;;9.32;4.78;;;18.00;99.90;;;;;;5063233;28;20040;-63
2022/10/10 10:51:28;;;;;;;7.28;4.55;;;17.80;99.90;;;;;;5046400;28;20402;-64
2022/10/10 10:54:29;;;;;;;6.28;4.70;;;17.90;99.90;;;;;;5063484;28;20079;-64
2022/10/10 10:57:06;;;;;;;11.18;4.70;;;17.70;99.90;;;;;;5063121;28;20822;-64
2022/10/10 10:59:37;;;;;;;8.73;4.63;;;17.70;99.90;;;;;;5045401;28;20044;-64
2022/10/10 11:02:06;;;;;;;7.28;4.40;;;18.10;99.90;;;;;;5044837;28;20036;-64
2022/10/10 11:05:01;;;;;;;8.50;4.30;;;18.40;99.90;;;;;;5063206;28;20104;-64
2022/10/10 11:07:33;;;;;;;11.18;4.55;;;18.20;99.90;;;;;;5059468;28;20115;-65
2022/10/10 11:10:12;;;;;;;6.53;4.10;;;17.60;99.90;;;;;;5035225;28;20044;-64
2022/10/10 11:12:49;;;;;;;6.70;4.22;;;17.70;99.90;;;;;;5062162;28;20070;-65
2022/10/10 11:15:38;;;;;;;7.95;4.70;;;18.10;99.90;;;;;;5053339;28;20113;-65
2022/10/10 11:18:21;;;;;;;9.88;4.50;;;18.20;99.90;;;;;;5035749;28;20044;-65
2022/10/10 11:20:53;;;;;;;8.43;4.47;;;18.00;99.90;;;;;;5061464;28;20044;-67
2022/10/10 11:23:48;;;;;;;9.90;4.28;;;18.00;99.90;;;;;;5061844;28;20079;-64
2022/10/10 11:26:28;;;;;;;7.88;4.65;;;18.20;99.90;;;;;;5049607;28;20063;-65
2022/10/10 11:28:59;;;;;;;7.53;4.30;;;18.20;99.90;;;;;;5062568;28;20648;-65
2022/10/10 11:31:56;;;;;;;6.95;4.05;;;18.20;99.90;;;;;;5059087;28;20059;-65
2022/10/10 11:34:30;;;;;;;10.10;4.10;;;18.00;99.90;;;;;;5076528;28;20052;-65
2022/10/10 11:37:04;;;;;;;8.68;4.45;;;17.80;99.90;;;;;;5042856;28;20465;-64
2022/10/10 11:39:38;;;;;;;8.18;4.50;;;17.60;99.90;;;;;;5042927;28;20082;-65
2022/10/10 11:42:18;;;;;;;10.55;3.30;;;17.40;99.90;;;;;;5060512;28;20063;-65
2022/10/10 11:44:56;;;;;;;7.43;3.45;;;17.30;99.90;;;;;;5059168;28;20124;-64
2022/10/10 11:47:33;;;;;;;6.85;3.88;;;17.10;99.90;;;;;;5034781;28;20039;-67
2022/10/10 11:50:22;;;;;;;6.95;3.85;;;16.80;99.90;;;;;;5060944;28;20070;-65
2022/10/10 11:53:00;;;;;;;9.63;3.92;;;16.50;99.90;;;;;;5042488;28;20676;-65
2022/10/10 11:55:36;;;;;;;8.40;3.70;;;16.30;99.90;;;;;;5059802;28;20206;-65
2022/10/10 11:58:05;;;;;;;8.15;4.20;;;16.00;99.90;;;;;;5060341;28;20047;-65
2022/10/10 12:00:43;;;;;;;9.60;4.15;;;15.90;99.90;;;;;;5059844;28;20044;-65
2022/10/10 12:03:09;;;;;;;11.35;4.15;;;15.70;99.90;;;;;;5059069;28;20038;-65
2022/10/10 12:05:39;;;;;;;11.10;4.45;;;15.70;99.90;;;;;;5042233;28;20052;-65
2022/10/10 12:08:19;;;;;;;10.98;4.75;;;15.60;99.90;;;;;;5041952;28;20197;-64
2022/10/10 12:11:00;;;;;;;8.95;4.30;;;15.50;99.90;;;;;;5042103;28;20077;-64
2022/10/10 12:13:34;;;;;;;10.27;4.40;;;15.40;99.90;;;;;;5058891;28;20044;-66
2022/10/10 12:16:10;;;;;;;7.63;4.05;;;15.30;99.90;;;;;;5076059;28;20131;-65
2022/10/10 12:18:52;;;;;;;10.23;4.43;;;15.20;99.90;;;;;;5059980;28;20040;-64
2022/10/10 12:21:23;;;;;;;8.32;4.43;;;15.10;99.90;;;;;;5059378;28;20205;-65
2022/10/10 12:23:58;;;;;;;10.63;4.30;;;15.10;99.90;;;;;;5058576;28;20495;-65
2022/10/10 12:26:25;;;;;;;8.43;4.28;;;15.00;99.90;;;;;;5076469;28;20382;-65
2022/10/10 12:29:00;;;;;;;10.18;5.20;;;15.20;99.90;;;;;;5041671;28;20040;-65
2022/10/10 12:31:37;;;;;;;13.07;5.68;;;15.10;99.90;;;;;;5041866;28;20040;-64
2022/10/10 12:34:13;;;;;;;12.02;4.80;;;15.20;99.90;;;;;;5058723;28;20043;-64
2022/10/10 12:36:38;;;;;;;8.25;5.38;;;15.10;99.90;;;;;;5058844;28;20040;-64
2022/10/10 12:39:05;;;;;;;11.13;5.68;;;15.00;99.90;;;;;;5032790;28;20456;-63
2022/10/10 12:41:49;;;;;;;10.93;6.07;;;15.00;99.90;;;;;;5058734;28;20305;-66
2022/10/10 12:44:41;;;;;;;12.95;5.65;;;15.00;99.90;;;;;;5059127;28;20079;-64
2022/10/10 12:47:44;;;;;;;9.88;5.68;;;15.00;99.90;;;;;;5059048;28;20044;-64
2022/10/10 12:50:26;;;;;;;9.98;6.40;;;15.20;99.90;;;;;;5053057;28;20455;-64
2022/10/10 12:52:56;;;;;;;12.90;6.38;;;14.90;99.90;;;;;;5082847;28;20482;-64
2022/10/10 12:55:31;;;;;;;10.80;6.68;;;14.70;99.90;;;;;;5042250;28;20354;-65
2022/10/10 12:58:01;;;;;;;12.57;6.80;;;14.80;99.90;;;;;;5087793;28;20036;-64
2022/10/10 13:00:38;;;;;;;14.27;8.52;;;14.70;99.90;;;;;;5058284;28;20189;-65
2022/10/10 13:03:17;;;;;;;14.15;7.65;;;14.50;99.90;;;;;;5058407;28;20080;-64
2022/10/10 13:05:44;;;;;;;14.63;8.73;;;14.30;99.90;;;;;;5058185;28;20040;-65
2022/10/10 13:08:23;;;;;;;16.05;8.63;;;14.30;99.90;;;;;;5070439;28;20040;-66
2022/10/10 13:11:05;;;;;;;13.32;8.48;;;14.40;99.90;;;;;;5057051;28;20052;-64